Bondville, IL (61815)

3:39 PM CST on December 27, 2014 (GMT -0600)
Champaign | Change Station
CLOSE
Current Station
Personal Weather Station
Location: Champaign, IL
Elevation: 738 ft
Nearby Weather Stations

Elev 738 ft 40.10 °N, 88.28 °W | Updated 5 seconds ago

Rain
Rain
38.5 °F
Feels Like 36 °F
N
3.4
Wind Variable Wind from NW
Gusts 4.9 mph

Today
High -- | Low -- °F
--% Chance of Precip.
Yesterday
High -- | Low -- °F
Precip. -- in
7:14 AM 4:34 PM
Waxing Crescent, 40% visible
Pressure 30.12 in
Visibility 8.0 miles
Clouds Few 1300 ft
Mostly Cloudy 6500 ft
Overcast 8000 ft
Windchill 36 °F
Dew Point 37 °F
Humidity 94%
Rainfall 0.07 in
Snow Depth Not available.
UV 0.0 out of 12
Pollen .10 out of 12
Air Quality Not available.
Flu Activity Not available.
METAR KCMI 272053Z 29014KT 8SM -RA FEW013 BKN065 OVC080 04/02 A3010 RMK AO2 PK WND 28029/2000 RAB1958 SLP197 P0001 60001 T00390017 53013

More Conditions Fewer Conditions

Pressure 30.12 in
Visibility 8.0 miles
Clouds Few 1300 ft
Mostly Cloudy 6500 ft
Overcast 8000 ft
Windchill 36 °F
Dew Point 37 °F
Humidity 94%
Rainfall 0.07 in
Snow Depth Not available.
UV 0.0 out of 12
Pollen .10 out of 12
Air Quality Not available.
Flu Activity Not available.
METAR KCMI 272053Z 29014KT 8SM -RA FEW013 BKN065 OVC080 04/02 A3010 RMK AO2 PK WND 28029/2000 RAB1958 SLP197 P0001 60001 T00390017 53013

More Conditions Fewer Conditions

10-Day Weather Forecast

Almanac

Astronomy

Dec. 27, 2014 Rise Set
Actual Time
Civil Twilight
Nautical Twilight
Astronomical Twilight
Moon
Length of Visible Light
Length of Day
Tomorrow will be .
, % of the Moon is Illuminated

Today's Extremes

State Highs State Lows

Community

WunderPhotos

Upload Photos

1,781,073 photos uploaded!

WunderBlogs® & News

Nearby

Air Quality

  Air Quality AQ Index Pollutant
Not available.

Snow Depth

Station Depth Elevation

Earthquake Activity

City Distance Mag. Time & Date
Minimum magnitude displayed is 2.5.

Coastal Water Temperatures

Place Temperature

Nearby Weather Stations